createdAt,value
2019-04-06T00:01:32.999Z,59.00
2019-04-06T00:04:03.552Z,58.70
2019-04-06T00:06:35.315Z,58.50
2019-04-06T00:09:07.443Z,58.70
2019-04-06T00:11:38.098Z,58.60
2019-04-06T00:14:08.734Z,58.60
2019-04-06T00:16:41.630Z,58.70
2019-04-06T00:19:12.223Z,58.60
2019-04-06T00:21:42.298Z,58.60
2019-04-06T00:24:12.824Z,58.20
2019-04-06T00:26:46.207Z,57.70
2019-04-06T00:29:17.840Z,57.90
2019-04-06T00:31:53.208Z,58.20
2019-04-06T00:34:23.817Z,57.80
2019-04-06T00:36:55.494Z,58.10
2019-04-06T00:39:26.115Z,57.80
2019-04-06T00:41:56.933Z,57.60
2019-04-06T00:44:27.058Z,57.80
2019-04-06T00:46:58.822Z,57.60
2019-04-06T00:49:30.333Z,57.10
2019-04-06T00:52:00.978Z,56.90
2019-04-06T00:54:31.040Z,56.90
2019-04-06T00:57:03.816Z,57.00
2019-04-06T00:59:34.438Z,56.80
2019-04-06T01:02:06.178Z,57.00
2019-04-06T01:04:36.703Z,57.30
2019-04-06T01:07:08.489Z,57.40
2019-04-06T01:09:38.445Z,57.40
2019-04-06T01:12:09.238Z,57.50
2019-04-06T01:14:39.876Z,58.00
2019-04-06T01:17:11.614Z,58.30
2019-04-06T01:19:42.133Z,58.40
2019-04-06T01:22:12.783Z,58.80
2019-04-06T01:24:43.384Z,58.60
2019-04-06T01:27:15.056Z,58.80
2019-04-06T01:29:45.616Z,59.10
2019-04-06T01:32:16.394Z,59.40
2019-04-06T01:34:46.929Z,59.50
2019-04-06T01:37:19.761Z,59.70
2019-04-06T01:39:51.495Z,59.70
2019-04-06T01:42:21.667Z,60.00
2019-04-06T01:44:51.627Z,60.40
2019-04-06T01:47:22.793Z,59.90
2019-04-06T01:49:53.950Z,59.90
2019-04-06T01:52:24.068Z,59.80
2019-04-06T01:54:54.589Z,60.10
2019-04-06T01:57:26.337Z,60.90
2019-04-06T01:59:56.852Z,60.90
2019-04-06T02:02:31.928Z,61.00
2019-04-06T02:05:02.505Z,61.30
2019-04-06T02:07:34.300Z,61.50
2019-04-06T02:10:11.882Z,62.20
2019-04-06T02:12:42.014Z,62.10
2019-04-06T02:15:12.761Z,62.60
2019-04-06T02:17:44.474Z,63.10
2019-04-06T02:20:14.530Z,63.00
2019-04-06T02:22:45.166Z,63.90
2019-04-06T02:25:15.709Z,63.30
2019-04-06T02:27:47.424Z,63.40
2019-04-06T02:30:22.142Z,63.20
2019-04-06T02:33:02.916Z,63.50
2019-04-06T02:35:38.286Z,64.50
2019-04-06T02:38:26.811Z,63.70
2019-04-06T02:41:04.879Z,63.60
2019-04-06T02:43:36.729Z,63.50
2019-04-06T02:46:07.250Z,63.30
2019-04-06T02:48:37.876Z,63.60
2019-04-06T02:51:08.487Z,63.90
2019-04-06T02:53:38.529Z,64.20
2019-04-06T02:56:09.314Z,64.20
2019-04-06T02:58:39.535Z,63.80
2019-04-06T03:01:10.053Z,63.50
2019-04-06T03:03:40.993Z,63.40
2019-04-06T03:06:11.685Z,63.10
2019-04-06T03:08:42.354Z,64.00
2019-04-06T03:11:13.033Z,65.80
2019-04-06T03:13:43.796Z,65.30
2019-04-06T03:16:14.325Z,65.00
2019-04-06T03:18:44.500Z,65.00
2019-04-06T03:21:15.130Z,65.10
2019-04-06T03:23:51.605Z,65.00
2019-04-06T03:26:17.725Z,64.90
2019-04-06T03:28:48.519Z,65.10
2019-04-06T03:31:23.459Z,65.50
2019-04-06T03:33:50.887Z,66.00
2019-04-06T03:36:20.863Z,66.40
2019-04-06T03:38:51.636Z,66.40
2019-04-06T03:41:21.902Z,67.00
2019-04-06T03:43:52.708Z,67.50
2019-04-06T03:46:23.258Z,67.40
2019-04-06T03:48:53.992Z,67.30
2019-04-06T03:51:26.408Z,67.40
2019-04-06T03:53:57.227Z,67.60
2019-04-06T03:56:27.839Z,67.60
2019-04-06T03:58:58.676Z,68.00
2019-04-06T04:01:28.748Z,68.20
2019-04-06T04:03:59.097Z,68.40
2019-04-06T04:06:30.893Z,68.50
2019-04-06T04:09:01.052Z,68.40
2019-04-06T04:11:32.878Z,68.40
2019-04-06T04:14:02.962Z,68.00
2019-04-06T04:16:34.173Z,67.60
2019-04-06T04:19:04.404Z,67.90
2019-04-06T04:21:35.252Z,67.80
2019-04-06T04:24:05.944Z,68.70
2019-04-06T04:26:38.556Z,68.80
2019-04-06T04:29:09.346Z,69.50
2019-04-06T04:31:39.977Z,69.70
2019-04-06T04:34:10.197Z,69.60
2019-04-06T04:36:41.855Z,68.80
2019-04-06T04:39:12.655Z,68.60
2019-04-06T04:41:42.696Z,69.20
2019-04-06T04:44:12.862Z,69.30
2019-04-06T04:46:44.698Z,69.60
2019-04-06T04:49:15.454Z,70.00
2019-04-06T04:51:46.445Z,70.40
2019-04-06T04:54:17.192Z,70.40
2019-04-06T04:56:51.343Z,70.70
2019-04-06T04:59:22.037Z,70.90
2019-04-06T05:01:52.796Z,70.30
2019-04-06T05:04:23.616Z,69.90
2019-04-06T05:06:55.395Z,69.80
2019-04-06T05:09:26.129Z,70.40
2019-04-06T05:11:57.548Z,70.50
2019-04-06T05:14:59.131Z,70.50
2019-04-06T05:17:31.553Z,70.50
2019-04-06T05:20:02.501Z,70.00
2019-04-06T05:22:32.647Z,69.10
2019-04-06T05:25:03.529Z,68.20
2019-04-06T05:27:35.234Z,68.20
2019-04-06T05:30:08.219Z,68.80
2019-04-06T05:32:38.839Z,68.40
2019-04-06T05:35:10.080Z,67.90
2019-04-06T05:37:41.874Z,67.20
2019-04-06T05:40:12.721Z,67.50
2019-04-06T05:42:43.241Z,68.70
2019-04-06T05:45:14.208Z,69.40
2019-04-06T05:47:46.849Z,69.60
2019-04-06T05:50:17.603Z,71.30
2019-04-06T05:52:47.580Z,71.90
2019-04-06T05:55:18.289Z,72.00
2019-04-06T05:57:50.144Z,72.00
2019-04-06T06:00:21.022Z,72.10
2019-04-06T06:02:51.629Z,72.50
2019-04-06T06:05:22.517Z,72.70
2019-04-06T06:07:53.062Z,73.30
2019-04-06T06:10:23.157Z,73.10
2019-04-06T06:12:53.851Z,73.00
2019-04-06T06:15:24.717Z,73.00
2019-04-06T06:17:56.348Z,72.80
2019-04-06T06:20:26.427Z,72.40
2019-04-06T06:22:57.074Z,72.30
2019-04-06T06:25:27.725Z,72.40
2019-04-06T06:27:59.435Z,72.60
2019-04-06T06:30:30.172Z,72.50
2019-04-06T06:33:00.125Z,72.20
2019-04-06T06:35:30.994Z,71.90
2019-04-06T06:38:02.733Z,70.10
2019-04-06T06:40:33.708Z,69.40
2019-04-06T06:43:04.730Z,68.40
2019-04-06T06:45:35.486Z,67.60
2019-04-06T06:48:06.708Z,69.40
2019-04-06T06:50:37.372Z,73.20
2019-04-06T06:53:09.071Z,73.50
2019-04-06T06:55:39.821Z,73.50
2019-04-06T06:58:12.756Z,73.60
2019-04-06T07:00:44.388Z,73.70
2019-04-06T07:03:14.996Z,73.30
2019-04-06T07:05:45.228Z,72.20
2019-04-06T07:08:15.884Z,71.20
2019-04-06T07:10:46.620Z,69.70
2019-04-06T07:13:17.389Z,69.80
2019-04-06T07:15:48.111Z,67.60
2019-04-06T07:18:18.777Z,68.20
2019-04-06T07:20:49.444Z,68.40
2019-04-06T07:23:19.970Z,69.10
2019-04-06T07:25:57.574Z,68.50
2019-04-06T07:28:22.892Z,67.90
2019-04-06T07:30:53.546Z,68.10
2019-04-06T07:33:24.109Z,67.90
2019-04-06T07:35:54.912Z,67.90
2019-04-06T07:38:27.232Z,67.50
2019-04-06T07:40:58.962Z,67.30
2019-04-06T07:43:29.615Z,66.90
2019-04-06T07:46:00.280Z,68.20
2019-04-06T07:48:32.085Z,68.70
2019-04-06T07:51:02.996Z,68.50
2019-04-06T07:53:34.178Z,68.20
2019-04-06T07:56:05.016Z,66.90
2019-04-06T07:58:35.556Z,67.70
2019-04-06T08:01:06.304Z,68.40
2019-04-06T08:03:37.197Z,68.90
2019-04-06T08:06:08.319Z,68.30
2019-04-06T08:08:39.107Z,69.90
2019-04-06T08:11:09.770Z,70.60
2019-04-06T08:13:40.306Z,70.10
2019-04-06T08:16:11.075Z,69.70
2019-04-06T08:18:41.697Z,69.70
2019-04-06T08:21:12.572Z,69.70
2019-04-06T08:23:43.183Z,70.70
2019-04-06T08:26:13.903Z,71.00
2019-04-06T08:28:44.470Z,70.20
2019-04-06T08:31:15.139Z,70.90
2019-04-06T08:33:45.747Z,71.10
2019-04-06T08:36:17.527Z,71.80
2019-04-06T08:38:48.083Z,72.60
2019-04-06T08:41:18.809Z,73.00
2019-04-06T08:43:49.369Z,73.60
2019-04-06T08:46:20.129Z,72.80
2019-04-06T08:48:50.762Z,73.10
2019-04-06T08:51:21.398Z,73.10
2019-04-06T08:53:53.182Z,72.40
2019-04-06T08:56:23.843Z,72.20
2019-04-06T08:58:54.386Z,71.50
2019-04-06T09:01:25.184Z,70.70
2019-04-06T09:03:55.255Z,71.90
2019-04-06T09:06:25.991Z,72.00
2019-04-06T09:08:56.543Z,71.10
2019-04-06T09:11:27.514Z,71.50
2019-04-06T09:13:58.273Z,72.00
2019-04-06T09:16:28.465Z,73.20
2019-04-06T09:18:59.103Z,72.70
2019-04-06T09:21:29.869Z,72.70
2019-04-06T09:24:00.634Z,72.50
2019-04-06T09:26:32.451Z,72.30
2019-04-06T09:29:03.001Z,71.90
2019-04-06T09:31:33.852Z,69.20
2019-04-06T09:34:04.450Z,69.40
2019-04-06T09:36:38.332Z,68.90
2019-04-06T09:39:08.983Z,70.10
2019-04-06T09:41:39.670Z,70.10
2019-04-06T09:44:12.932Z,70.70
2019-04-06T09:47:04.744Z,70.60
2019-04-06T09:49:53.166Z,71.00
2019-04-06T09:52:25.731Z,70.80
2019-04-06T09:55:01.211Z,70.70
2019-04-06T09:57:35.690Z,70.60
2019-04-06T10:00:25.884Z,70.50
2019-04-06T10:03:14.535Z,69.00
2019-04-06T10:05:49.647Z,68.60
2019-04-06T10:08:33.054Z,68.70
2019-04-06T10:11:11.138Z,68.50
2019-04-06T10:14:00.167Z,67.40
2019-04-06T10:16:39.401Z,68.70
2019-04-06T10:19:18.909Z,68.50
2019-04-06T10:21:56.760Z,66.80
2019-04-06T10:24:40.893Z,67.80
2019-04-06T10:27:29.526Z,66.30
2019-04-06T10:30:18.168Z,65.70
2019-04-06T10:32:50.846Z,66.60
2019-04-06T10:35:24.307Z,67.30
2019-04-06T10:38:13.193Z,66.80
2019-04-06T10:41:01.921Z,66.90
2019-04-06T10:43:58.764Z,67.70
2019-04-06T10:46:44.335Z,67.50
2019-04-06T10:49:28.650Z,68.10
2019-04-06T10:52:00.983Z,68.30
2019-04-06T10:54:51.392Z,68.20
2019-04-06T10:57:26.875Z,68.30
2019-04-06T11:00:14.492Z,68.20
2019-04-06T11:02:49.978Z,68.20
2019-04-06T11:05:47.512Z,68.80
2019-04-06T11:08:24.864Z,68.50
2019-04-06T11:11:11.100Z,69.00
2019-04-06T11:13:46.159Z,69.20
2019-04-06T11:16:24.339Z,68.40
2019-04-06T11:19:11.600Z,68.50
2019-04-06T11:21:43.842Z,68.20
2019-04-06T11:24:28.255Z,68.80
2019-04-06T11:27:12.678Z,69.60
2019-04-06T11:29:57.420Z,68.80
2019-04-06T11:32:38.632Z,68.00
2019-04-06T11:35:17.408Z,68.50
2019-04-06T11:37:55.541Z,68.20
2019-04-06T11:40:28.232Z,68.60
2019-04-06T11:43:16.724Z,68.40
2019-04-06T11:45:58.175Z,68.00
2019-04-06T11:48:45.306Z,65.40
2019-04-06T11:51:17.679Z,64.40
2019-04-06T11:53:49.968Z,64.80
2019-04-06T11:56:24.420Z,66.10
2019-04-06T11:58:56.841Z,65.50
2019-04-06T12:01:36.944Z,65.80
2019-04-06T12:04:27.781Z,66.70
2019-04-06T12:07:18.589Z,65.90
2019-04-06T12:09:50.885Z,67.00
2019-04-06T12:12:23.105Z,66.30
2019-04-06T12:14:55.327Z,64.80
2019-04-06T12:17:34.537Z,66.60
2019-04-06T12:20:14.361Z,67.20
2019-04-06T12:22:50.077Z,67.70
2019-04-06T12:25:27.557Z,66.90
2019-04-06T12:28:16.269Z,67.50
2019-04-06T12:30:54.327Z,67.60
2019-04-06T12:33:27.487Z,67.70
2019-04-06T12:35:59.995Z,67.60
2019-04-06T12:38:44.291Z,67.30
2019-04-06T12:41:26.205Z,67.20
2019-04-06T12:43:58.771Z,67.10
2019-04-06T12:46:47.422Z,66.60
2019-04-06T12:49:32.030Z,67.50
2019-04-06T12:52:16.095Z,66.30
2019-04-06T12:54:48.267Z,67.50
2019-04-06T12:57:26.358Z,66.70
2019-04-06T13:00:01.527Z,68.00
2019-04-06T13:02:41.227Z,68.40
2019-04-06T13:05:16.648Z,67.10
2019-04-06T13:07:49.199Z,67.50
2019-04-06T13:10:21.425Z,65.00
2019-04-06T13:12:54.100Z,66.90
2019-04-06T13:15:38.771Z,67.80
2019-04-06T13:18:16.707Z,66.70
2019-04-06T13:20:52.011Z,67.00
2019-04-06T13:23:24.243Z,66.70
2019-04-06T13:25:56.402Z,67.10
2019-04-06T13:28:41.084Z,67.30
2019-04-06T13:31:13.332Z,66.60
2019-04-06T13:33:54.637Z,67.20
2019-04-06T13:36:27.029Z,65.80
2019-04-06T13:39:14.578Z,66.90
2019-04-06T13:42:03.475Z,66.10
2019-04-06T13:44:38.664Z,66.60
2019-04-06T13:47:28.354Z,65.90
2019-04-06T13:50:00.665Z,65.90
2019-04-06T13:52:49.380Z,66.10
2019-04-06T13:55:24.211Z,65.50
2019-04-06T13:58:02.985Z,64.00
2019-04-06T14:00:50.604Z,65.30
2019-04-06T14:03:22.939Z,66.30
2019-04-06T14:06:11.576Z,67.70
2019-04-06T14:08:50.002Z,65.30
2019-04-06T14:11:31.866Z,66.30
2019-04-06T14:14:04.235Z,66.60
2019-04-06T14:16:52.635Z,65.40
2019-04-06T14:19:43.134Z,64.20
2019-04-06T14:22:30.280Z,65.70
2019-04-06T14:25:08.429Z,65.50
2019-04-06T14:27:43.811Z,64.60
2019-04-06T14:30:28.079Z,65.20
2019-04-06T14:33:00.270Z,66.30
2019-04-06T14:35:38.710Z,66.60
2019-04-06T14:38:23.389Z,67.20
2019-04-06T14:41:04.531Z,67.40
2019-04-06T14:43:43.463Z,68.40
2019-04-06T14:46:21.425Z,66.20
2019-04-06T14:49:14.112Z,66.60
2019-04-06T14:51:55.641Z,66.60
2019-04-06T14:54:37.148Z,66.60
2019-04-06T14:57:09.417Z,66.70
2019-04-06T14:59:47.256Z,66.10
2019-04-06T15:02:34.913Z,66.60
2019-04-06T15:05:08.912Z,67.20
2019-04-06T15:07:58.994Z,67.00
2019-04-06T15:10:31.744Z,65.80
2019-04-06T15:13:06.806Z,65.80
2019-04-06T15:15:41.971Z,66.10
2019-04-06T15:18:30.726Z,66.60
2019-04-06T15:21:15.274Z,66.80
2019-04-06T15:23:47.656Z,66.70
2019-04-06T15:26:36.371Z,68.00
2019-04-06T15:29:20.829Z,68.60
2019-04-06T15:31:54.224Z,67.30
2019-04-06T15:34:43.004Z,66.80
2019-04-06T15:37:19.101Z,67.00
2019-04-06T15:39:57.414Z,66.90
2019-04-06T15:42:35.736Z,67.40
2019-04-06T15:45:08.467Z,68.10
2019-04-06T15:48:00.374Z,68.40
2019-04-06T15:50:32.918Z,67.90
2019-04-06T15:53:05.254Z,67.80
2019-04-06T15:55:50.011Z,68.00
2019-04-06T15:58:39.835Z,67.70
2019-04-06T16:01:12.195Z,68.50
2019-04-06T16:03:48.613Z,68.60
2019-04-06T16:06:32.752Z,68.70
2019-04-06T16:09:16.950Z,68.90
2019-04-06T16:12:05.647Z,69.30
2019-04-06T16:14:47.228Z,69.40
2019-04-06T16:17:33.879Z,70.70
2019-04-06T16:20:17.399Z,72.00
2019-04-06T16:22:55.672Z,72.30
2019-04-06T16:25:28.161Z,73.10
2019-04-06T16:28:03.908Z,73.10
2019-04-06T16:30:52.634Z,72.70
2019-04-06T16:33:35.774Z,71.80
2019-04-06T16:39:12.306Z,72.80
2019-04-06T16:41:45.812Z,73.30
2019-04-06T16:44:18.218Z,73.30
2019-04-06T16:47:03.483Z,73.40
2019-04-06T16:49:42.119Z,73.60
2019-04-06T16:52:17.584Z,74.00
2019-04-06T16:54:52.939Z,74.10
2019-04-06T16:57:28.337Z,74.40
2019-04-06T17:00:01.217Z,74.60
2019-04-06T17:02:49.310Z,75.10
2019-04-06T17:05:28.647Z,75.10
2019-04-06T17:08:19.106Z,75.50
2019-04-06T17:11:09.296Z,75.80
2019-04-06T17:13:44.530Z,76.40
2019-04-06T17:16:35.067Z,76.20
2019-04-06T17:19:10.315Z,76.30
2019-04-06T17:21:46.677Z,76.50
2019-04-06T17:24:30.766Z,77.00
2019-04-06T17:27:12.723Z,77.10
2019-04-06T17:29:51.586Z,77.30
2019-04-06T17:32:34.740Z,77.50
2019-04-06T17:35:10.447Z,77.50
2019-04-06T17:38:00.772Z,77.60
2019-04-06T17:40:33.396Z,77.60
2019-04-06T17:43:06.330Z,77.80
2019-04-06T17:45:41.428Z,78.00
2019-04-06T17:48:16.862Z,78.40
2019-04-06T17:50:49.170Z,78.40
2019-04-06T17:53:27.753Z,78.90
2019-04-06T17:56:16.280Z,78.90
2019-04-06T17:59:06.399Z,78.90
2019-04-06T18:01:47.840Z,79.00
2019-04-06T18:04:26.029Z,79.40
2019-04-06T18:07:05.905Z,79.50
2019-04-06T18:09:54.672Z,79.60
2019-04-06T18:12:26.880Z,79.80
2019-04-06T18:14:57.582Z,80.10
2019-04-06T18:17:28.433Z,80.20
2019-04-06T18:19:59.702Z,80.40
2019-04-06T18:22:29.690Z,80.80
2019-04-06T18:24:59.890Z,80.90
2019-04-06T18:27:31.723Z,81.00
2019-04-06T18:30:02.344Z,80.80
2019-04-06T18:32:35.268Z,81.00
2019-04-06T18:35:08.560Z,81.20
2019-04-06T18:37:48.018Z,81.20
2019-04-06T18:40:20.540Z,81.20
2019-04-06T18:42:51.170Z,81.20
2019-04-06T18:45:22.021Z,81.20
2019-04-06T18:47:53.114Z,81.30
2019-04-06T18:50:33.275Z,81.30
2019-04-06T18:52:56.704Z,81.70
2019-04-06T18:55:27.764Z,81.70
2019-04-06T18:58:08.732Z,81.90
2019-04-06T19:00:32.094Z,81.90
2019-04-06T19:03:12.720Z,82.10
2019-04-06T19:05:35.788Z,82.50
2019-04-06T19:08:06.893Z,82.70
2019-04-06T19:10:38.151Z,82.90
2019-04-06T19:13:09.115Z,83.00
2019-04-06T19:15:39.894Z,83.30
2019-04-06T19:18:11.931Z,83.50
2019-04-06T19:20:43.253Z,83.60
2019-04-06T19:23:13.739Z,83.80
2019-04-06T19:25:44.294Z,83.90
2019-04-06T19:28:14.514Z,84.20
2019-04-06T19:30:45.398Z,84.40
2019-04-06T19:33:23.750Z,84.30
2019-04-06T19:35:48.385Z,84.70
2019-04-06T19:38:19.001Z,84.80
2019-04-06T19:40:50.444Z,85.00
2019-04-06T19:43:21.188Z,85.10
2019-04-06T19:45:51.948Z,86.00
2019-04-06T19:48:22.751Z,85.50
2019-04-06T19:50:53.239Z,85.90
2019-04-06T19:53:23.297Z,86.00
2019-04-06T19:55:56.420Z,86.40
2019-04-06T19:58:27.202Z,86.40
2019-04-06T20:00:58.678Z,86.60
2019-04-06T20:03:34.626Z,86.80
2019-04-06T20:06:01.250Z,87.00
2019-04-06T20:08:32.881Z,86.80
2019-04-06T20:11:03.704Z,87.50
2019-04-06T20:13:34.407Z,86.70
2019-04-06T20:16:04.724Z,86.90
2019-04-06T20:18:35.641Z,86.80
2019-04-06T20:21:06.739Z,86.80
2019-04-06T20:23:36.726Z,86.50
2019-04-06T20:26:07.925Z,86.10
2019-04-06T20:28:39.005Z,86.50
2019-04-06T20:31:10.509Z,86.30
2019-04-06T20:33:48.167Z,86.20
2019-04-06T20:36:13.087Z,86.30
2019-04-06T20:38:43.837Z,86.50
2019-04-06T20:41:14.041Z,86.50
2019-04-06T20:43:44.303Z,85.80
2019-04-06T20:46:15.265Z,85.80
2019-04-06T20:48:46.023Z,85.60
2019-04-06T20:51:16.778Z,85.50
2019-04-06T20:53:46.907Z,85.30
2019-04-06T20:56:17.190Z,85.10
2019-04-06T20:58:47.876Z,84.40
2019-04-06T21:01:19.150Z,83.90
2019-04-06T21:03:59.219Z,83.70
2019-04-06T21:06:21.694Z,83.50
2019-04-06T21:08:52.629Z,83.60
2019-04-06T21:11:23.205Z,83.80
2019-04-06T21:13:53.898Z,83.20
2019-04-06T21:16:25.705Z,82.50
2019-04-06T21:18:56.781Z,81.90
2019-04-06T21:21:28.007Z,81.20
2019-04-06T21:23:59.802Z,80.90
2019-04-06T21:26:31.325Z,80.70
2019-04-06T21:29:02.556Z,80.40
2019-04-06T21:31:52.794Z,80.30
2019-04-06T21:34:23.692Z,80.00
2019-04-06T21:36:55.626Z,79.40
2019-04-06T21:39:26.891Z,78.80
2019-04-06T21:41:58.146Z,77.80
2019-04-06T21:44:28.301Z,78.00
2019-04-06T21:46:59.059Z,77.70
2019-04-06T21:49:41.326Z,77.90
2019-04-06T21:52:11.514Z,77.80
2019-04-06T21:55:00.936Z,77.80
2019-04-06T21:57:31.328Z,77.60
2019-04-06T22:00:02.104Z,77.90
2019-04-06T22:02:35.563Z,78.20
2019-04-06T22:05:09.312Z,79.40
2019-04-06T22:07:48.637Z,78.30
2019-04-06T22:10:11.797Z,78.70
2019-04-06T22:12:43.163Z,78.70
2019-04-06T22:15:15.254Z,78.70
2019-04-06T22:17:45.525Z,78.80
2019-04-06T22:20:15.717Z,79.20
2019-04-06T22:22:46.989Z,79.60
2019-04-06T22:25:17.672Z,80.90
2019-04-06T22:27:50.241Z,81.20
2019-04-06T22:30:21.033Z,81.70
2019-04-06T22:32:51.685Z,81.80
2019-04-06T22:35:23.060Z,81.90
2019-04-06T22:37:55.466Z,81.90
2019-04-06T22:40:27.235Z,82.10
2019-04-06T22:43:01.269Z,82.60
2019-04-06T22:45:33.581Z,82.50
2019-04-06T22:48:04.041Z,82.60
2019-04-06T22:50:34.815Z,82.80
2019-04-06T22:53:05.641Z,82.80
2019-04-06T22:55:35.619Z,83.10
2019-04-06T22:58:06.433Z,83.40
2019-04-06T23:00:38.790Z,83.40
2019-04-06T23:03:13.843Z,83.80
2019-04-06T23:05:51.793Z,84.30
2019-04-06T23:08:22.703Z,83.90
2019-04-06T23:10:53.103Z,84.30
2019-04-06T23:13:23.929Z,84.20
2019-04-06T23:15:54.223Z,84.10
2019-04-06T23:18:25.679Z,84.60
2019-04-06T23:20:56.565Z,84.60
2019-04-06T23:23:26.762Z,84.60
2019-04-06T23:25:57.500Z,84.80
2019-04-06T23:28:28.444Z,85.10
2019-04-06T23:30:59.201Z,85.10
2019-04-06T23:33:29.292Z,85.30
2019-04-06T23:35:59.916Z,85.60
2019-04-06T23:38:30.121Z,85.40
2019-04-06T23:41:00.245Z,85.50
2019-04-06T23:43:31.029Z,85.70
2019-04-06T23:46:02.059Z,86.00
2019-04-06T23:48:32.787Z,86.40
2019-04-06T23:51:03.019Z,86.70
2019-04-06T23:53:34.376Z,86.90
2019-04-06T23:56:05.332Z,87.50
2019-04-06T23:58:35.513Z,88.00
